Terminal Aerodrome Forecast
Issued by NWS

Home | Current Version | Previous Version | Text Only | Print | Product List | Glossary On
Versions: 1 2 3 4 5 6 7 8 9 10 11 12 13 14 15 16
000
FTUS41 KCAR 221721
TAFHUL
TAF
KHUL 221721Z 2218/2318 35005KT P6SM SCT250
     FM222100 02004KT P6SM VCSH BKN250
     FM230300 VRB03KT 2SM -SN OVC060
     FM230500 10004KT 1/2SM SN OVC035
     FM231400 12011KT 1SM -SNPL OVC008
     FM231700 13013KT 2SM -FZRAPL OVC003=

USA.gov is the U.S. government's official web portal to all federal, state and local government web resources and services.